Time;durP1;ratioP1;P1;durP2;ratioP2;P2;SDS_P1;SDS_P2;PMS_P1;PMS_P2;Temp;Humidity;BMP_temperature;BMP_pressure;BME280_temperature;BME280_humidity;BME280_pressure;Samples;Min_cycle;Max_cycle;Signal;HPM_P1;HPM_P2
2021/05/29 00:00:59;;;;;;;2.88;1.80;;;15.40;99.90;;;15.03;90.01;101621.97;4122890;28;20035;-67
2021/05/29 00:03:00;;;;;;;3.95;2.05;;;15.40;99.90;;;15.03;89.64;101619.31;4123012;28;20019;-67
2021/05/29 00:05:02;;;;;;;3.67;1.98;;;15.40;99.90;;;14.94;89.79;101607.00;4122598;28;20506;-67
2021/05/29 00:07:04;;;;;;;3.05;1.80;;;15.40;99.90;;;15.13;89.14;101617.34;4122765;28;20030;-67
2021/05/29 00:09:06;;;;;;;2.55;2.00;;;15.40;99.90;;;15.17;89.12;101623.97;4122838;28;20478;-67
2021/05/29 00:11:08;;;;;;;3.75;1.60;;;15.40;99.90;;;15.06;89.58;101623.47;4122452;28;20027;-67
2021/05/29 00:13:11;;;;;;;2.38;2.03;;;15.40;99.90;;;14.96;89.91;101626.28;4122572;28;20035;-67
2021/05/29 00:15:12;;;;;;;2.60;2.00;;;15.40;99.90;;;14.95;89.82;101624.63;4122708;28;20061;-67
2021/05/29 00:17:13;;;;;;;5.68;2.20;;;15.40;99.90;;;15.10;88.77;101622.16;4122645;28;20114;-67
2021/05/29 00:19:14;;;;;;;5.60;2.00;;;15.40;99.90;;;15.37;87.30;101625.34;4122594;28;20022;-67
2021/05/29 00:21:15;;;;;;;2.97;1.90;;;15.50;99.90;;;15.35;87.08;101621.19;4123216;28;20185;-67
2021/05/29 00:23:16;;;;;;;4.88;2.00;;;15.60;99.90;;;15.27;86.90;101622.00;4131213;28;20024;-67
2021/05/29 00:25:17;;;;;;;3.03;2.10;;;15.60;99.90;;;15.41;84.30;101625.84;4106579;28;20034;-67
2021/05/29 00:27:18;;;;;;;2.97;1.90;;;15.60;99.90;;;15.34;85.35;101620.34;4106348;28;20031;-67
2021/05/29 00:29:19;;;;;;;4.80;2.20;;;15.70;99.90;;;15.25;86.29;101618.69;4106379;28;20475;-67
2021/05/29 00:31:20;;;;;;;3.42;2.35;;;15.60;99.90;;;15.34;85.25;101630.97;4106541;28;20065;-67
2021/05/29 00:33:21;;;;;;;3.78;1.95;;;15.60;99.90;;;15.30;85.74;101626.97;4106628;28;20035;-67
2021/05/29 00:35:23;;;;;;;4.88;2.30;;;15.60;99.90;;;15.23;85.93;101625.16;4106467;28;20055;-67
2021/05/29 00:37:23;;;;;;;2.67;2.35;;;15.70;99.90;;;15.20;86.44;101628.94;4106298;28;20057;-67
2021/05/29 00:39:24;;;;;;;3.35;2.08;;;15.60;99.90;;;15.29;85.46;101632.47;4106470;28;20070;-67
2021/05/29 00:41:25;;;;;;;3.15;2.40;;;15.60;99.90;;;15.32;85.63;101626.84;4106322;28;20074;-67
2021/05/29 00:43:26;;;;;;;2.60;1.90;;;15.60;99.90;;;15.33;86.60;101629.31;4106530;28;20031;-67
2021/05/29 00:45:28;;;;;;;2.88;2.13;;;15.60;99.90;;;15.28;86.98;101630.81;4106268;28;20042;-67
2021/05/29 00:47:30;;;;;;;3.95;2.40;;;15.60;99.90;;;15.16;87.34;101626.81;4106194;28;20027;-67
2021/05/29 00:49:31;;;;;;;2.97;2.33;;;15.50;99.90;;;15.20;86.77;101639.59;4106225;28;20032;-67
2021/05/29 00:51:31;;;;;;;3.42;2.10;;;15.50;99.90;;;15.10;87.16;101628.28;4106268;28;20032;-67
2021/05/29 00:53:35;;;;;;;5.10;2.20;;;15.50;99.90;;;15.09;87.44;101637.25;4104955;28;20062;-67
2021/05/29 00:55:36;;;;;;;3.58;2.10;;;15.50;99.90;;;15.10;87.54;101638.94;4109667;28;20027;-67
2021/05/29 00:57:48;;;;;;;2.83;1.90;;;15.40;99.90;;;15.01;87.67;101645.22;4121114;28;20422;-67
2021/05/29 00:59:49;;;;;;;4.60;2.20;;;15.40;99.90;;;14.98;87.73;101634.06;4122165;28;20023;-67
2021/05/29 01:01:50;;;;;;;2.05;1.85;;;15.40;99.90;;;14.99;87.75;101647.22;4121973;28;20435;-67
2021/05/29 01:03:51;;;;;;;4.50;2.08;;;15.40;99.90;;;15.12;86.88;101644.91;4122048;28;20101;-67
2021/05/29 01:05:52;;;;;;;4.43;2.22;;;15.40;99.90;;;15.05;86.80;101643.06;4121897;28;20169;-67
2021/05/29 01:07:54;;;;;;;2.70;2.10;;;15.30;99.90;;;14.93;88.02;101645.22;4121924;28;20037;-67
2021/05/29 01:09:55;;;;;;;3.50;2.22;;;15.30;99.90;;;15.02;88.19;101649.53;4121778;28;20042;-67
2021/05/29 01:11:56;;;;;;;3.50;1.90;;;15.30;99.90;;;14.99;89.00;101647.22;4121811;28;20027;-67
2021/05/29 01:13:59;;;;;;;4.20;2.60;;;15.30;99.90;;;15.08;88.42;101646.25;4121732;28;20035;-67
2021/05/29 01:16:18;;;;;;;4.35;2.60;;;15.30;99.90;;;15.01;88.08;101645.22;4121984;28;20082;-67
2021/05/29 01:18:19;;;;;;;3.83;2.40;;;15.30;99.90;;;14.92;88.17;101643.53;4121744;28;20031;-67
2021/05/29 01:20:20;;;;;;;3.20;2.28;;;15.30;99.90;;;14.88;88.79;101637.72;4121916;28;20023;-67
2021/05/29 01:22:51;;;;;;;4.35;2.10;;;15.20;99.90;;;14.89;88.83;101649.16;4121754;28;20046;-67
2021/05/29 01:24:52;;;;;;;3.42;2.30;;;15.20;99.90;;;14.93;88.54;101645.22;4121805;28;20554;-68
2021/05/29 01:26:54;;;;;;;3.45;2.30;;;15.20;99.90;;;14.95;88.62;101651.19;4121474;28;20034;-67
2021/05/29 01:28:56;;;;;;;2.92;2.05;;;15.20;99.90;;;15.00;88.13;101653.34;4121669;28;20023;-67
2021/05/29 01:31:07;;;;;;;3.30;2.42;;;15.20;99.90;;;14.91;88.02;101652.47;4120172;28;20058;-67
2021/05/29 01:33:18;;;;;;;4.75;2.17;;;15.20;99.90;;;14.85;88.82;101645.16;4121565;28;20058;-67
2021/05/29 01:35:19;;;;;;;4.10;2.35;;;15.20;99.90;;;14.81;89.31;101649.16;4121615;28;20035;-67
2021/05/29 01:37:20;;;;;;;2.97;2.55;;;15.10;99.90;;;14.67;89.65;101645.28;4121549;28;20114;-67
2021/05/29 01:39:21;;;;;;;2.92;2.17;;;15.10;99.90;;;14.62;90.07;101644.09;4121308;28;20031;-67
2021/05/29 01:41:25;;;;;;;4.75;2.42;;;15.00;99.90;;;14.72;89.17;101650.13;4120070;28;20050;-67
2021/05/29 01:43:26;;;;;;;4.00;2.70;;;15.00;99.90;;;14.67;89.55;101645.28;4121259;28;20037;-67
2021/05/29 01:45:28;;;;;;;2.80;2.38;;;15.00;99.90;;;14.66;89.76;101654.25;4121215;28;20415;-67
2021/05/29 01:47:29;;;;;;;3.55;2.35;;;15.00;99.90;;;14.63;90.04;101659.03;4121403;28;20070;-67
2021/05/29 01:49:29;;;;;;;4.00;2.40;;;15.00;99.90;;;14.82;88.89;101656.09;4121317;28;20121;-67
2021/05/29 01:51:30;;;;;;;4.78;2.33;;;15.00;99.90;;;14.89;88.26;101657.13;4121200;28;20081;-67
2021/05/29 01:53:32;;;;;;;2.60;2.30;;;15.10;99.90;;;14.80;88.57;101658.09;4121132;28;20046;-67
2021/05/29 01:55:33;;;;;;;3.50;2.17;;;15.10;99.90;;;14.70;89.61;101662.72;4121405;28;20027;-67
2021/05/29 01:57:34;;;;;;;2.35;2.13;;;15.00;99.90;;;14.68;89.58;101660.22;4120995;28;20026;-67
2021/05/29 01:59:35;;;;;;;4.50;2.45;;;15.00;99.90;;;14.77;89.21;101658.44;4121141;28;20057;-67
2021/05/29 02:01:36;;;;;;;3.58;2.53;;;15.00;99.90;;;14.72;89.53;101666.88;4121088;28;20031;-67
2021/05/29 02:03:37;;;;;;;2.78;2.30;;;14.90;99.90;;;14.67;90.03;101663.88;4120971;28;20058;-67
2021/05/29 02:05:39;;;;;;;4.15;2.60;;;14.90;99.90;;;14.73;89.91;101659.72;4121175;28;20406;-67
2021/05/29 02:07:41;;;;;;;3.88;2.85;;;15.00;99.90;;;14.73;89.45;101673.00;4121158;28;20490;-67
2021/05/29 02:09:42;;;;;;;3.00;2.25;;;15.00;99.90;;;14.57;90.19;101667.66;4111381;28;20042;-67
2021/05/29 02:11:43;;;;;;;4.50;2.42;;;14.90;99.90;;;14.45;90.48;101667.09;4120476;28;20073;-67
2021/05/29 02:13:46;;;;;;;5.40;2.47;;;14.80;99.90;;;14.50;90.72;101672.75;4120994;28;20490;-67
2021/05/29 02:15:47;;;;;;;4.43;2.55;;;14.80;99.90;;;14.57;89.66;101672.97;4120978;28;20117;-67
2021/05/29 02:17:51;;;;;;;3.15;2.85;;;14.80;99.90;;;14.52;90.12;101669.94;4120955;28;20302;-67
2021/05/29 02:19:52;;;;;;;3.30;2.70;;;14.80;99.90;;;14.44;90.85;101664.59;4120846;28;20173;-67
2021/05/29 02:21:53;;;;;;;3.22;2.65;;;14.80;99.90;;;14.48;90.72;101665.94;4120821;28;20422;-67
2021/05/29 02:23:54;;;;;;;4.25;3.05;;;14.70;99.90;;;14.58;90.13;101664.81;4120871;28;20074;-67
2021/05/29 02:26:03;;;;;;;4.25;3.42;;;14.80;99.90;;;14.62;89.68;101663.53;4120664;28;20062;-67
2021/05/29 02:28:05;;;;;;;4.63;3.10;;;14.80;99.90;;;14.58;89.93;101669.28;4120843;28;20033;-68
2021/05/29 02:30:09;;;;;;;3.75;3.40;;;14.80;99.90;;;14.58;89.93;101671.94;4120724;28;20023;-67
2021/05/29 02:32:10;;;;;;;4.25;3.63;;;14.80;99.90;;;14.60;89.65;101683.25;4120734;28;20030;-67
2021/05/29 02:34:11;;;;;;;4.28;3.40;;;14.80;99.90;;;14.58;89.58;101669.28;4120459;28;20043;-67
2021/05/29 02:36:12;;;;;;;6.57;3.35;;;14.80;99.90;;;14.51;89.61;101674.44;4120516;28;20023;-67
2021/05/29 02:38:13;;;;;;;4.10;3.17;;;14.70;99.90;;;14.46;89.93;101675.88;4120724;28;20508;-67
2021/05/29 02:40:15;;;;;;;3.17;2.88;;;14.70;99.90;;;14.49;90.05;101675.56;4120614;28;20069;-67
2021/05/29 02:42:16;;;;;;;5.88;3.42;;;14.70;99.90;;;14.35;89.97;101675.19;4120266;28;20034;-67
2021/05/29 02:44:17;;;;;;;5.20;3.35;;;14.70;99.90;;;14.49;89.50;101686.16;4120637;28;20074;-67
2021/05/29 02:46:18;;;;;;;4.63;3.25;;;14.70;99.90;;;14.46;89.65;101681.19;4120579;28;20050;-67
2021/05/29 02:48:20;;;;;;;6.65;3.17;;;14.70;99.90;;;14.39;89.92;101681.00;4120470;28;20054;-67
2021/05/29 02:50:22;;;;;;;3.75;3.00;;;14.60;99.90;;;14.38;90.17;101669.56;4120463;28;20090;-67
2021/05/29 02:52:23;;;;;;;6.25;4.20;;;14.60;99.90;;;14.40;89.89;101674.69;4120504;28;20034;-67
2021/05/29 02:54:24;;;;;;;4.93;3.30;;;14.70;99.90;;;14.39;89.75;101673.84;4120258;28;20406;-67
2021/05/29 02:56:26;;;;;;;4.45;3.47;;;14.70;99.90;;;14.33;90.18;101676.31;4120128;28;20102;-67
2021/05/29 02:58:27;;;;;;;6.10;3.40;;;14.60;99.90;;;14.49;88.78;101678.22;4120168;28;20030;-67
2021/05/29 03:00:35;;;;;;;3.65;3.28;;;14.70;99.90;;;14.42;89.52;101675.38;4120364;28;20054;-67
2021/05/29 03:02:36;;;;;;;5.30;3.80;;;14.70;99.90;;;14.38;89.64;101682.81;4120319;28;20030;-67
2021/05/29 03:04:38;;;;;;;7.72;4.10;;;14.60;99.90;;;14.27;90.07;101667.16;4120148;28;20042;-67
2021/05/29 03:06:39;;;;;;;4.55;3.40;;;14.60;99.90;;;14.32;90.29;101680.78;4118853;28;20034;-67
2021/05/29 03:08:41;;;;;;;4.45;3.38;;;14.60;99.90;;;14.27;90.61;101683.06;4120323;28;20371;-67
2021/05/29 03:10:44;;;;;;;6.60;3.50;;;14.60;99.90;;;14.27;90.41;101687.53;4119942;28;20022;-67
2021/05/29 03:12:46;;;;;;;4.07;3.25;;;14.60;99.90;;;14.11;90.86;101685.59;4120336;28;20513;-67
2021/05/29 03:14:47;;;;;;;6.07;3.83;;;14.50;99.90;;;14.09;91.40;101684.09;4119868;28;20050;-67
2021/05/29 03:16:49;;;;;;;4.65;3.67;;;14.40;99.90;;;14.07;91.75;101686.91;4120183;28;20430;-67
2021/05/29 03:18:50;;;;;;;5.72;3.95;;;14.40;99.90;;;14.04;91.35;101681.06;4119961;28;20031;-67
2021/05/29 03:20:51;;;;;;;4.38;3.60;;;14.30;99.90;;;14.13;91.02;101696.06;4119566;28;20030;-67
2021/05/29 03:22:52;;;;;;;6.85;3.85;;;14.40;99.90;;;14.10;91.14;101693.72;4119834;28;20026;-67
2021/05/29 03:24:53;;;;;;;4.15;3.70;;;14.30;99.90;;;14.04;91.70;101697.81;4120073;28;20402;-67
2021/05/29 03:26:54;;;;;;;4.03;3.70;;;14.30;99.90;;;14.05;91.42;101688.03;4119749;28;20037;-67
2021/05/29 03:28:55;;;;;;;4.15;3.53;;;14.30;99.90;;;14.02;91.67;101685.69;4119975;28;20034;-67
2021/05/29 03:30:56;;;;;;;6.70;4.00;;;14.30;99.90;;;14.00;92.12;101685.03;4119734;28;20023;-67
2021/05/29 03:32:58;;;;;;;5.90;4.10;;;14.20;99.90;;;14.04;91.67;101676.59;4120010;28;20027;-67
2021/05/29 03:34:59;;;;;;;5.25;3.72;;;14.30;99.90;;;14.07;91.74;101688.72;4119757;28;20037;-67
2021/05/29 03:37:00;;;;;;;4.82;3.53;;;14.30;99.90;;;13.96;92.55;101688.97;4120022;28;20027;-67
2021/05/29 03:39:01;;;;;;;4.90;4.18;;;14.30;99.90;;;14.06;92.41;101692.38;4119741;28;20031;-67
2021/05/29 03:41:02;;;;;;;4.80;3.90;;;14.30;99.90;;;14.12;92.03;101689.09;4119709;28;20027;-67
2021/05/29 03:43:03;;;;;;;5.35;3.78;;;14.30;99.90;;;14.08;92.25;101683.25;4119577;28;20030;-67
2021/05/29 03:45:08;;;;;;;5.32;3.78;;;14.40;99.90;;;14.13;91.89;101685.44;4119768;28;20035;-67
2021/05/29 03:47:09;;;;;;;5.28;3.97;;;14.30;99.90;;;14.02;92.75;101683.88;4119755;28;20383;-67
2021/05/29 03:49:10;;;;;;;6.95;4.50;;;14.40;99.90;;;14.01;92.44;101687.50;4119754;28;20038;-67
2021/05/29 03:51:11;;;;;;;5.53;4.15;;;14.40;99.90;;;14.02;92.88;101685.69;4119750;28;20070;-67
2021/05/29 03:53:12;;;;;;;5.38;4.18;;;14.30;99.90;;;14.05;92.06;101685.38;4119580;28;20637;-67
2021/05/29 03:55:15;;;;;;;5.32;3.80;;;14.30;99.90;;;13.96;92.67;101687.16;4119591;28;20023;-67
2021/05/29 03:57:16;;;;;;;5.25;4.20;;;14.30;99.90;;;13.92;92.81;101683.13;4119722;28;20027;-67
2021/05/29 03:59:17;;;;;;;5.85;4.40;;;14.20;99.90;;;13.85;93.07;101687.41;4119874;28;20038;-67
2021/05/29 04:01:18;;;;;;;4.18;3.78;;;14.20;99.90;;;13.93;92.53;101684.81;4119435;28;20038;-67
2021/05/29 04:03:19;;;;;;;5.60;4.20;;;14.20;99.90;;;13.95;92.51;101690.78;4119587;28;20019;-67
2021/05/29 04:05:21;;;;;;;6.20;3.90;;;14.20;99.90;;;13.89;92.49;101680.78;4119495;28;20055;-67
2021/05/29 04:07:22;;;;;;;6.93;3.92;;;14.10;99.90;;;13.97;92.10;101694.13;4119738;28;20368;-67
2021/05/29 04:09:23;;;;;;;4.40;3.80;;;14.10;99.90;;;13.96;92.11;101683.66;4119546;28;20034;-67
2021/05/29 04:11:25;;;;;;;5.18;3.80;;;14.10;99.90;;;13.88;92.32;101675.66;4119347;28;20065;-67
2021/05/29 04:13:26;;;;;;;4.13;3.72;;;14.10;99.90;;;13.78;92.80;101675.75;4119521;28;20157;-67
2021/05/29 04:15:27;;;;;;;5.22;3.50;;;14.10;99.90;;;13.73;93.29;101689.47;4119645;28;20557;-67
2021/05/29 04:17:28;;;;;;;5.53;4.38;;;14.00;99.90;;;13.69;93.68;101684.63;4119484;28;20030;-67
2021/05/29 04:19:28;;;;;;;5.80;4.30;;;14.00;99.90;;;13.72;93.54;101684.31;4119400;28;20034;-67
2021/05/29 04:21:29;;;;;;;7.60;4.00;;;14.00;99.90;;;13.87;92.29;101677.47;4119392;28;20078;-67
2021/05/29 04:23:30;;;;;;;5.15;4.10;;;14.00;99.90;;;13.75;91.91;101674.25;4119626;28;20054;-67
2021/05/29 04:25:31;;;;;;;4.13;3.72;;;14.00;99.90;;;13.62;92.32;101672.97;4119460;28;20068;-67
2021/05/29 04:27:33;;;;;;;6.22;4.25;;;13.90;99.90;;;13.58;92.81;101674.25;4119218;28;20092;-67
2021/05/29 04:29:34;;;;;;;4.65;3.78;;;13.90;99.90;;;13.64;93.17;101684.25;4119299;28;20027;-67
2021/05/29 04:31:35;;;;;;;5.22;4.00;;;13.90;99.90;;;13.62;93.52;101694.19;4119515;28;20035;-67
2021/05/29 04:33:35;;;;;;;4.43;3.85;;;13.90;99.90;;;13.79;91.98;101688.88;4121855;28;20513;-67
2021/05/29 04:35:36;;;;;;;4.50;3.80;;;14.00;99.90;;;13.69;92.62;101688.09;4122423;28;20462;-67
2021/05/29 04:37:41;;;;;;;6.43;4.60;;;14.00;99.90;;;13.72;92.50;101687.81;4122245;28;20498;-67
2021/05/29 04:39:42;;;;;;;;;;;14.00;99.90;;;13.62;93.02;101692.34;4122859;28;20033;-67
2021/05/29 04:41:43;;;;;;;4.63;3.47;;;14.00;99.90;;;13.69;92.81;101687.28;4122057;28;19910;-67
2021/05/29 04:43:44;;;;;;;4.50;3.20;;;14.10;99.90;;;13.70;93.03;101683.66;4122284;28;20030;-67
2021/05/29 04:45:45;;;;;;;4.85;3.50;;;14.10;99.90;;;13.79;93.35;101696.81;4122121;28;20033;-67
2021/05/29 04:47:47;;;;;;;4.07;3.67;;;14.20;99.90;;;13.83;93.13;101695.50;4122409;28;20050;-67
2021/05/29 04:49:48;;;;;;;5.47;4.07;;;14.20;99.90;;;13.82;93.46;101685.91;4122311;28;20023;-67
2021/05/29 04:51:49;;;;;;;5.13;3.80;;;14.20;99.90;;;13.98;92.23;101687.81;4122220;28;20057;-67
2021/05/29 04:53:50;;;;;;;6.45;4.80;;;14.30;99.90;;;14.06;91.97;101687.06;4122011;28;20098;-67
2021/05/29 04:55:57;;;;;;;5.40;3.45;;;14.40;99.90;;;13.98;91.97;101690.47;4122019;28;20475;-67
2021/05/29 04:57:57;;;;;;;4.68;3.55;;;14.40;99.90;;;14.05;92.06;101704.78;4120890;28;20047;-67
2021/05/29 04:59:58;;;;;;;6.50;3.22;;;14.50;99.90;;;14.09;92.51;101710.63;4122097;28;20026;-67
2021/05/29 05:01:59;;;;;;;3.13;2.83;;;14.50;99.90;;;14.15;92.24;101720.63;4121983;28;20035;-67
2021/05/29 05:04:01;;;;;;;6.93;3.42;;;14.60;99.90;;;14.16;92.33;101717.81;4122062;28;20050;-67
2021/05/29 05:06:03;;;;;;;6.18;3.33;;;14.60;99.90;;;14.40;90.72;101711.84;4121965;28;20035;-67
2021/05/29 05:08:05;;;;;;;5.63;3.83;;;14.70;99.90;;;14.43;91.44;101723.97;4121834;28;20113;-67
2021/05/29 05:10:07;;;;;;;4.95;4.47;;;14.80;99.90;;;14.60;89.37;101718.63;4121835;28;20486;-67
2021/05/29 05:12:08;;;;;;;5.40;4.10;;;14.90;99.90;;;14.73;88.72;101719.00;4121938;28;20049;-67
2021/05/29 05:14:09;;;;;;;5.28;3.65;;;15.10;99.90;;;14.83;87.35;101722.38;4121798;28;20030;-67
2021/05/29 05:16:10;;;;;;;5.05;3.53;;;15.20;99.90;;;14.80;87.96;101716.53;4121845;28;20478;-67
2021/05/29 05:18:12;;;;;;;5.03;3.80;;;15.30;99.90;;;14.90;87.60;101717.25;4121966;28;20034;-67
2021/05/29 05:20:14;;;;;;;7.10;3.22;;;15.40;99.90;;;14.93;87.58;101706.31;4121883;28;20023;-67
2021/05/29 05:22:15;;;;;;;3.30;2.92;;;15.40;99.90;;;14.91;87.46;101714.44;4121681;28;20025;-67
2021/05/29 05:24:16;;;;;;;4.78;3.58;;;15.50;99.90;;;14.94;87.42;101715.94;4121648;28;20037;-67
2021/05/29 05:26:18;;;;;;;5.10;4.10;;;15.50;99.90;;;15.09;85.00;101722.28;4121317;28;20114;-67
2021/05/29 05:28:22;;;;;;;4.70;4.00;;;15.60;99.90;;;15.13;84.89;101725.47;4121772;28;20034;-67
2021/05/29 05:30:24;;;;;;;4.13;3.20;;;15.60;99.90;;;15.16;85.57;101733.94;4121636;28;20076;-67
2021/05/29 05:32:25;;;;;;;3.65;3.35;;;15.70;99.90;;;15.22;85.11;101733.31;4121713;28;20494;-67
2021/05/29 05:34:26;;;;;;;3.83;3.50;;;15.70;99.90;;;15.13;84.48;101736.94;4121519;28;20046;-67
2021/05/29 05:36:27;;;;;;;3.38;3.08;;;15.70;99.90;;;15.18;85.26;101737.28;4121566;28;20030;-67
2021/05/29 05:38:28;;;;;;;4.40;3.30;;;15.80;99.90;;;15.26;84.31;101741.78;4121615;28;20062;-67
2021/05/29 05:40:29;;;;;;;5.15;3.13;;;15.80;99.90;;;15.17;85.82;101740.09;4121399;28;20457;-67
2021/05/29 05:42:30;;;;;;;3.97;2.90;;;15.80;99.90;;;15.19;87.00;101738.09;4121274;28;20042;-67
2021/05/29 05:44:31;;;;;;;5.72;3.20;;;15.70;99.90;;;15.21;87.58;101739.59;4121187;28;20054;-67
2021/05/29 05:46:32;;;;;;;4.50;4.05;;;15.70;99.90;;;15.32;84.76;101741.16;4121440;28;20042;-67
2021/05/29 05:48:33;;;;;;;6.03;3.58;;;15.80;99.90;;;15.35;85.03;101738.16;4121495;28;20031;-67
2021/05/29 05:50:34;;;;;;;6.18;3.40;;;15.80;99.90;;;15.36;85.72;101750.44;4121236;28;20038;-67
2021/05/29 05:52:38;;;;;;;5.07;3.35;;;15.90;99.90;;;15.42;85.98;101745.31;4121439;28;20027;-67
2021/05/29 05:54:39;;;;;;;5.13;3.85;;;16.00;99.90;;;15.55;83.51;101749.34;4121545;28;20039;-67
2021/05/29 05:56:40;;;;;;;3.85;3.50;;;16.10;99.90;;;15.65;83.47;101755.38;4120939;28;20105;-67
2021/05/29 05:58:41;;;;;;;5.95;3.10;;;16.10;99.90;;;15.70;84.31;101758.34;4121042;28;20105;-67
2021/05/29 06:00:42;;;;;;;5.32;3.25;;;16.20;99.90;;;15.76;83.92;101763.03;4121386;28;20387;-67
2021/05/29 06:02:45;;;;;;;5.38;3.75;;;16.30;99.90;;;15.85;83.46;101764.69;4121141;28;20042;-67
2021/05/29 06:04:46;;;;;;;3.33;3.03;;;16.40;99.90;;;15.80;84.40;101775.81;4120920;28;20050;-67
2021/05/29 06:06:47;;;;;;;3.20;2.90;;;16.40;99.90;;;15.78;85.08;101771.66;4121184;28;20031;-67
2021/05/29 06:08:48;;;;;;;3.60;2.90;;;16.40;99.90;;;15.82;85.44;101773.84;4121056;28;20034;-67
2021/05/29 06:10:51;;;;;;;4.00;2.95;;;16.40;99.90;;;15.86;85.64;101777.00;4120548;28;20035;-67
2021/05/29 06:12:54;;;;;;;5.22;2.90;;;16.50;99.90;;;15.86;85.78;101771.69;4120825;28;20026;-67
2021/05/29 06:19:34;;;;;;;4.15;3.00;;;16.60;99.90;;;16.08;82.87;101775.50;4120702;28;20041;-67
2021/05/29 06:21:35;;;;;;;3.17;2.70;;;16.60;99.90;;;16.14;82.90;101783.66;4120644;28;20105;-67
2021/05/29 06:23:36;;;;;;;3.85;3.33;;;16.70;99.90;;;16.21;81.30;101784.66;4120867;28;20030;-67
2021/05/29 06:25:37;;;;;;;3.35;2.97;;;16.70;99.90;;;16.20;81.85;101792.81;4120391;28;20023;-67
2021/05/29 06:27:38;;;;;;;4.03;3.05;;;16.80;99.90;;;16.24;81.34;101794.97;4120737;28;20038;-67
2021/05/29 06:29:39;;;;;;;6.20;3.80;;;16.80;99.90;;;16.28;80.63;101785.63;4120596;28;20505;-67
2021/05/29 06:31:40;;;;;;;4.53;3.03;;;16.80;99.90;;;16.42;80.16;101795.63;4120657;28;20142;-67
2021/05/29 06:33:41;;;;;;;4.20;2.90;;;16.90;99.90;;;16.38;80.53;101796.97;4120501;28;20023;-67
2021/05/29 06:35:42;;;;;;;4.78;2.95;;;17.00;99.90;;;16.31;81.84;101801.28;4120657;28;20057;-67
2021/05/29 06:37:43;;;;;;;3.17;2.80;;;17.00;99.90;;;16.27;83.16;101794.66;4120508;28;20035;-67
2021/05/29 06:39:45;;;;;;;3.53;3.22;;;17.00;99.90;;;16.29;83.41;101794.47;4120459;28;20027;-67
2021/05/29 06:41:46;;;;;;;3.85;3.00;;;17.00;99.90;;;16.37;82.37;101792.63;4120025;28;20059;-67
2021/05/29 06:43:47;;;;;;;3.50;3.20;;;17.00;99.90;;;16.51;81.81;101799.13;4120222;28;20479;-67
2021/05/29 06:45:48;;;;;;;4.72;2.85;;;17.10;99.90;;;16.58;82.46;101800.94;4120358;28;20398;-67
2021/05/29 06:47:50;;;;;;;4.03;3.03;;;17.20;99.90;;;16.59;83.31;101799.97;4120573;28;20034;-67
2021/05/29 06:49:51;;;;;;;3.40;3.10;;;17.20;99.90;;;16.64;82.42;101807.44;4120320;28;20074;-67
2021/05/29 06:52:00;;;;;;;5.15;3.33;;;17.30;99.90;;;16.75;81.43;101812.41;4120246;28;20034;-67
2021/05/29 06:54:06;;;;;;;3.47;2.85;;;17.40;99.90;;;16.73;81.85;101805.56;4120093;28;20034;-67
2021/05/29 07:00:43;;;;;;;3.30;2.78;;;17.50;99.90;;;16.72;84.25;101807.44;4119842;28;20091;-67
2021/05/29 07:02:43;;;;;;;3.65;3.30;;;17.50;99.90;;;16.78;84.29;101811.25;4120050;28;20034;-67
2021/05/29 07:04:44;;;;;;;4.53;3.25;;;17.60;99.90;;;16.84;83.72;101807.91;4119669;28;20043;-68
2021/05/29 07:06:45;;;;;;;2.92;2.50;;;17.60;99.90;;;16.91;83.94;101814.19;4119796;28;20479;-67
2021/05/29 07:08:47;;;;;;;3.70;3.15;;;17.70;99.90;;;17.00;82.51;101807.84;4119933;28;20467;-67
2021/05/29 07:10:48;;;;;;;4.68;3.20;;;17.80;99.90;;;17.10;80.49;101813.81;4119732;28;20526;-67
2021/05/29 07:12:49;;;;;;;5.97;2.97;;;17.90;99.90;;;17.11;81.43;101805.63;4119730;28;20035;-67
2021/05/29 07:14:50;;;;;;;5.05;3.20;;;18.00;99.90;;;17.14;81.67;101815.94;4119704;28;20113;-67
2021/05/29 07:16:55;;;;;;;3.55;2.97;;;18.00;99.90;;;17.15;81.93;101811.44;4119949;28;20031;-67
2021/05/29 07:18:56;;;;;;;6.10;4.03;;;18.00;99.90;;;17.34;81.15;101812.88;4119963;28;20027;-67
2021/05/29 07:20:59;;;;;;;6.00;3.53;;;18.10;99.90;;;17.24;80.64;101794.41;4117778;28;20027;-67
2021/05/29 07:23:00;;;;;;;4.43;3.27;;;18.20;99.90;;;17.32;81.15;101805.06;4110767;28;20027;-67
2021/05/29 07:25:06;;;;;;;4.20;3.05;;;18.20;99.90;;;17.31;82.20;101811.38;4103459;28;20063;-68
2021/05/29 07:27:07;;;;;;;4.30;3.58;;;18.20;99.90;;;17.29;82.03;101809.91;4103685;28;20031;-68
2021/05/29 07:29:08;;;;;;;5.32;3.78;;;18.20;99.90;;;17.33;80.47;101809.38;4103631;28;20118;-68
2021/05/29 07:31:09;;;;;;;5.53;3.17;;;18.20;99.90;;;17.36;80.59;101809.03;4103572;28;20039;-68
2021/05/29 07:33:10;;;;;;;3.70;2.70;;;18.20;99.90;;;17.36;80.98;101806.34;4103614;28;20490;-68
2021/05/29 07:35:12;;;;;;;3.78;2.88;;;18.20;99.90;;;17.43;80.14;101810.00;4103356;28;20035;-68
2021/05/29 07:37:13;;;;;;;4.05;3.05;;;18.20;99.90;;;17.48;80.80;101818.28;4103565;28;20023;-68
2021/05/29 07:39:13;;;;;;;5.80;3.10;;;18.40;99.90;;;17.59;80.08;101820.59;4103370;28;20495;-68
2021/05/29 07:41:15;;;;;;;3.70;3.40;;;18.40;99.90;;;17.67;78.39;101817.91;4103362;28;20031;-68
2021/05/29 07:43:16;;;;;;;5.53;3.50;;;18.60;99.90;;;17.72;78.84;101819.19;4103720;28;20511;-68
2021/05/29 07:45:17;;;;;;;3.53;3.17;;;18.50;99.90;;;17.83;77.97;101814.28;4103473;28;20042;-67
2021/05/29 07:47:19;;;;;;;2.58;2.38;;;18.60;99.90;;;17.93;78.75;101812.22;4103478;28;20507;-68
2021/05/29 07:49:20;;;;;;;4.20;3.22;;;18.80;99.90;;;17.98;78.94;101811.69;4103446;28;20118;-68
2021/05/29 07:51:21;;;;;;;4.03;2.80;;;18.90;99.90;;;18.02;79.45;101815.66;4103737;28;20023;-68
2021/05/29 07:53:22;;;;;;;4.38;3.50;;;18.90;99.90;;;18.00;76.12;101820.34;4103538;28;20039;-67
2021/05/29 07:55:23;;;;;;;7.18;3.95;;;19.00;99.90;;;18.07;75.35;101815.97;4103192;28;20030;-67
2021/05/29 07:57:24;;;;;;;4.28;2.83;;;19.10;99.90;;;18.20;74.94;101819.69;4103648;28;20027;-68
2021/05/29 07:59:25;;;;;;;3.63;3.00;;;19.20;99.90;;;18.36;75.30;101813.38;4103546;28;20023;-68
2021/05/29 08:01:26;;;;;;;3.50;3.20;;;19.30;99.90;;;18.22;74.63;101822.16;4103384;28;20023;-67
2021/05/29 08:03:31;;;;;;;3.30;3.00;;;19.40;99.90;;;18.35;74.05;101811.72;4103281;28;20099;-68
2021/05/29 08:05:32;;;;;;;3.17;2.78;;;19.40;99.90;;;18.51;73.14;101826.81;4103025;28;20055;-68
2021/05/29 08:07:33;;;;;;;4.10;2.80;;;19.50;99.90;;;18.56;72.71;101830.59;4105876;28;20039;-68
2021/05/29 08:09:34;;;;;;;4.60;3.08;;;19.60;99.90;;;18.62;72.77;101829.84;4114932;28;20034;-68
2021/05/29 08:11:39;;;;;;;4.88;3.13;;;19.60;99.90;;;18.67;72.10;101838.16;4122175;28;20049;-67
2021/05/29 08:13:40;;;;;;;4.40;3.10;;;19.60;99.90;;;18.65;71.79;101839.34;4122138;28;20031;-68
2021/05/29 08:15:43;;;;;;;5.03;3.55;;;19.70;99.90;;;18.71;71.72;101835.94;4122379;28;20034;-68
2021/05/29 08:17:44;;;;;;;5.35;3.58;;;19.70;99.90;;;18.89;70.76;101843.63;4122474;28;20027;-68
2021/05/29 08:19:45;;;;;;;5.50;3.15;;;19.80;99.90;;;19.09;70.01;101842.03;4122382;28;20052;-68
2021/05/29 08:21:49;;;;;;;4.10;3.25;;;20.00;99.90;;;19.25;68.91;101833.84;4122248;28;20015;-68
2021/05/29 08:23:50;;;;;;;4.95;3.55;;;20.30;99.90;;;19.44;69.84;101835.16;4122200;28;20533;-67
2021/05/29 08:25:51;;;;;;;5.50;3.50;;;20.50;99.90;;;19.76;68.32;101835.53;4122197;28;20022;-67
2021/05/29 08:27:52;;;;;;;3.20;2.85;;;20.80;99.90;;;19.72;66.47;101831.56;4122245;28;20038;-68
2021/05/29 08:29:53;;;;;;;3.53;2.83;;;21.00;99.90;;;19.76;65.63;101835.53;4122358;28;20099;-67
2021/05/29 08:31:54;;;;;;;3.15;2.85;;;21.10;99.90;;;19.98;64.93;101830.19;4122105;28;20031;-67
2021/05/29 08:33:55;;;;;;;4.03;3.05;;;21.30;99.90;;;20.05;64.46;101834.56;4122224;28;20030;-67
2021/05/29 08:35:56;;;;;;;5.13;3.25;;;21.30;99.90;;;20.26;65.31;101828.41;4121996;28;20034;-67